sensor_id;sensor_type;location;lat;lon;timestamp;P1;durP1;ratioP1;P2;durP2;ratioP2
72924;SDS011;61070;50.794;7.054;2022-12-18T00:01:27;42.05;;;16.35;;
72924;SDS011;61070;50.794;7.054;2022-12-18T00:03:58;42.58;;;16.70;;
72924;SDS011;61070;50.794;7.054;2022-12-18T00:06:25;37.05;;;15.77;;
72924;SDS011;61070;50.794;7.054;2022-12-18T00:08:51;38.25;;;16.27;;
72924;SDS011;61070;50.794;7.054;2022-12-18T00:11:18;41.05;;;15.63;;
72924;SDS011;61070;50.794;7.054;2022-12-18T00:13:45;46.55;;;16.30;;
72924;SDS011;61070;50.794;7.054;2022-12-18T00:16:12;47.75;;;17.52;;
72924;SDS011;61070;50.794;7.054;2022-12-18T00:18:40;40.63;;;15.43;;
72924;SDS011;61070;50.794;7.054;2022-12-18T00:21:07;41.08;;;14.57;;
72924;SDS011;61070;50.794;7.054;2022-12-18T00:23:35;44.33;;;15.43;;
72924;SDS011;61070;50.794;7.054;2022-12-18T00:26:02;42.70;;;16.40;;
72924;SDS011;61070;50.794;7.054;2022-12-18T00:28:30;33.30;;;14.30;;
72924;SDS011;61070;50.794;7.054;2022-12-18T00:31:02;46.40;;;15.85;;
72924;SDS011;61070;50.794;7.054;2022-12-18T00:33:29;40.92;;;15.85;;
72924;SDS011;61070;50.794;7.054;2022-12-18T00:35:59;38.75;;;16.02;;
72924;SDS011;61070;50.794;7.054;2022-12-18T00:38:33;36.92;;;15.32;;
72924;SDS011;61070;50.794;7.054;2022-12-18T00:40:59;38.17;;;16.30;;
72924;SDS011;61070;50.794;7.054;2022-12-18T00:43:24;39.58;;;16.33;;
72924;SDS011;61070;50.794;7.054;2022-12-18T00:45:50;41.90;;;16.13;;
72924;SDS011;61070;50.794;7.054;2022-12-18T00:48:15;36.67;;;14.52;;
72924;SDS011;61070;50.794;7.054;2022-12-18T00:50:40;40.22;;;16.48;;
72924;SDS011;61070;50.794;7.054;2022-12-18T00:53:06;38.45;;;15.77;;
72924;SDS011;61070;50.794;7.054;2022-12-18T00:55:37;52.40;;;15.95;;
72924;SDS011;61070;50.794;7.054;2022-12-18T00:58:04;42.85;;;16.02;;
72924;SDS011;61070;50.794;7.054;2022-12-18T01:00:29;44.78;;;16.88;;
72924;SDS011;61070;50.794;7.054;2022-12-18T01:02:55;47.00;;;16.15;;
72924;SDS011;61070;50.794;7.054;2022-12-18T01:05:20;35.85;;;15.30;;
72924;SDS011;61070;50.794;7.054;2022-12-18T01:07:45;43.25;;;16.73;;
72924;SDS011;61070;50.794;7.054;2022-12-18T01:10:11;41.22;;;15.63;;
72924;SDS011;61070;50.794;7.054;2022-12-18T01:12:37;36.22;;;15.02;;
72924;SDS011;61070;50.794;7.054;2022-12-18T01:15:03;39.90;;;17.35;;
72924;SDS011;61070;50.794;7.054;2022-12-18T01:17:30;42.00;;;16.88;;
72924;SDS011;61070;50.794;7.054;2022-12-18T01:19:55;44.03;;;17.02;;
72924;SDS011;61070;50.794;7.054;2022-12-18T01:22:20;47.15;;;17.90;;
72924;SDS011;61070;50.794;7.054;2022-12-18T01:24:46;51.97;;;17.05;;
72924;SDS011;61070;50.794;7.054;2022-12-18T01:27:11;45.83;;;18.75;;
72924;SDS011;61070;50.794;7.054;2022-12-18T01:29:36;47.38;;;18.58;;
72924;SDS011;61070;50.794;7.054;2022-12-18T01:32:01;46.80;;;16.77;;
72924;SDS011;61070;50.794;7.054;2022-12-18T01:34:27;43.63;;;17.60;;
72924;SDS011;61070;50.794;7.054;2022-12-18T01:36:52;45.25;;;16.55;;
72924;SDS011;61070;50.794;7.054;2022-12-18T01:39:17;52.25;;;18.48;;
72924;SDS011;61070;50.794;7.054;2022-12-18T01:41:43;44.05;;;17.60;;
72924;SDS011;61070;50.794;7.054;2022-12-18T01:49:56;43.53;;;16.80;;
72924;SDS011;61070;50.794;7.054;2022-12-18T01:52:24;45.35;;;15.88;;
72924;SDS011;61070;50.794;7.054;2022-12-18T01:54:52;45.65;;;16.95;;
72924;SDS011;61070;50.794;7.054;2022-12-18T01:57:18;45.63;;;16.83;;
72924;SDS011;61070;50.794;7.054;2022-12-18T01:59:45;40.17;;;16.20;;
72924;SDS011;61070;50.794;7.054;2022-12-18T02:02:15;41.58;;;16.92;;
72924;SDS011;61070;50.794;7.054;2022-12-18T02:04:42;49.95;;;17.75;;
72924;SDS011;61070;50.794;7.054;2022-12-18T02:07:10;46.33;;;17.23;;
72924;SDS011;61070;50.794;7.054;2022-12-18T02:09:48;45.70;;;18.15;;
72924;SDS011;61070;50.794;7.054;2022-12-18T02:12:25;50.53;;;16.83;;
72924;SDS011;61070;50.794;7.054;2022-12-18T02:15:16;43.47;;;15.75;;
72924;SDS011;61070;50.794;7.054;2022-12-18T02:17:59;49.88;;;17.80;;
72924;SDS011;61070;50.794;7.054;2022-12-18T02:20:44;43.85;;;17.20;;
72924;SDS011;61070;50.794;7.054;2022-12-18T02:26:19;33.23;;;13.37;;
72924;SDS011;61070;50.794;7.054;2022-12-18T02:28:46;49.50;;;17.45;;
72924;SDS011;61070;50.794;7.054;2022-12-18T02:31:19;42.20;;;18.60;;
72924;SDS011;61070;50.794;7.054;2022-12-18T02:33:52;48.15;;;18.42;;
72924;SDS011;61070;50.794;7.054;2022-12-18T02:36:23;47.92;;;17.95;;
72924;SDS011;61070;50.794;7.054;2022-12-18T02:38:51;58.88;;;18.20;;
72924;SDS011;61070;50.794;7.054;2022-12-18T02:41:18;54.08;;;18.20;;
72924;SDS011;61070;50.794;7.054;2022-12-18T02:43:53;43.75;;;18.40;;
72924;SDS011;61070;50.794;7.054;2022-12-18T02:52:14;46.90;;;18.63;;
72924;SDS011;61070;50.794;7.054;2022-12-18T02:55:12;58.15;;;19.23;;
72924;SDS011;61070;50.794;7.054;2022-12-18T02:58:12;46.22;;;18.98;;
72924;SDS011;61070;50.794;7.054;2022-12-18T03:01:03;46.47;;;19.98;;
72924;SDS011;61070;50.794;7.054;2022-12-18T03:03:47;48.15;;;17.75;;
72924;SDS011;61070;50.794;7.054;2022-12-18T03:06:29;56.22;;;20.50;;
72924;SDS011;61070;50.794;7.054;2022-12-18T03:09:02;57.53;;;18.90;;
72924;SDS011;61070;50.794;7.054;2022-12-18T03:11:35;49.20;;;18.45;;
72924;SDS011;61070;50.794;7.054;2022-12-18T03:14:23;43.90;;;17.20;;
72924;SDS011;61070;50.794;7.054;2022-12-18T03:16:52;47.30;;;19.30;;
72924;SDS011;61070;50.794;7.054;2022-12-18T03:19:23;47.10;;;17.95;;
72924;SDS011;61070;50.794;7.054;2022-12-18T03:21:53;55.33;;;20.63;;
72924;SDS011;61070;50.794;7.054;2022-12-18T03:24:21;52.10;;;18.73;;
72924;SDS011;61070;50.794;7.054;2022-12-18T03:26:53;50.35;;;20.08;;
72924;SDS011;61070;50.794;7.054;2022-12-18T03:29:26;49.70;;;20.23;;
72924;SDS011;61070;50.794;7.054;2022-12-18T03:32:05;47.90;;;18.48;;
72924;SDS011;61070;50.794;7.054;2022-12-18T03:34:35;45.03;;;18.10;;
72924;SDS011;61070;50.794;7.054;2022-12-18T03:37:03;48.72;;;18.45;;
72924;SDS011;61070;50.794;7.054;2022-12-18T03:39:30;46.25;;;18.83;;
72924;SDS011;61070;50.794;7.054;2022-12-18T03:42:05;52.53;;;18.80;;
72924;SDS011;61070;50.794;7.054;2022-12-18T03:44:34;56.13;;;18.92;;
72924;SDS011;61070;50.794;7.054;2022-12-18T03:47:09;54.10;;;20.42;;
72924;SDS011;61070;50.794;7.054;2022-12-18T03:49:38;36.17;;;13.20;;
72924;SDS011;61070;50.794;7.054;2022-12-18T03:52:14;47.95;;;17.88;;
72924;SDS011;61070;50.794;7.054;2022-12-18T03:54:51;51.35;;;19.65;;
72924;SDS011;61070;50.794;7.054;2022-12-18T03:57:19;55.08;;;17.92;;
72924;SDS011;61070;50.794;7.054;2022-12-18T03:59:49;48.97;;;18.33;;
72924;SDS011;61070;50.794;7.054;2022-12-18T04:02:19;54.20;;;18.27;;
72924;SDS011;61070;50.794;7.054;2022-12-18T04:04:47;49.97;;;18.10;;
72924;SDS011;61070;50.794;7.054;2022-12-18T04:07:17;48.47;;;18.85;;
72924;SDS011;61070;50.794;7.054;2022-12-18T04:09:43;51.42;;;18.25;;
72924;SDS011;61070;50.794;7.054;2022-12-18T04:12:10;49.90;;;18.73;;
72924;SDS011;61070;50.794;7.054;2022-12-18T04:14:36;55.50;;;19.55;;
72924;SDS011;61070;50.794;7.054;2022-12-18T04:17:01;51.00;;;19.50;;
72924;SDS011;61070;50.794;7.054;2022-12-18T04:19:27;50.83;;;18.30;;
72924;SDS011;61070;50.794;7.054;2022-12-18T04:21:52;44.45;;;18.23;;
72924;SDS011;61070;50.794;7.054;2022-12-18T04:24:18;47.47;;;18.58;;
72924;SDS011;61070;50.794;7.054;2022-12-18T04:26:43;56.97;;;20.17;;
72924;SDS011;61070;50.794;7.054;2022-12-18T04:29:08;45.92;;;17.08;;
72924;SDS011;61070;50.794;7.054;2022-12-18T04:31:33;52.15;;;18.85;;
72924;SDS011;61070;50.794;7.054;2022-12-18T04:33:59;55.28;;;20.67;;
72924;SDS011;61070;50.794;7.054;2022-12-18T04:36:24;45.45;;;17.42;;
72924;SDS011;61070;50.794;7.054;2022-12-18T04:38:49;52.00;;;19.27;;
72924;SDS011;61070;50.794;7.054;2022-12-18T04:41:15;47.30;;;18.75;;
72924;SDS011;61070;50.794;7.054;2022-12-18T04:43:40;51.40;;;17.27;;
72924;SDS011;61070;50.794;7.054;2022-12-18T04:46:06;46.58;;;17.30;;
72924;SDS011;61070;50.794;7.054;2022-12-18T04:48:32;52.15;;;17.77;;
72924;SDS011;61070;50.794;7.054;2022-12-18T04:50:58;46.03;;;17.55;;
72924;SDS011;61070;50.794;7.054;2022-12-18T04:53:24;43.25;;;17.38;;
72924;SDS011;61070;50.794;7.054;2022-12-18T04:55:49;42.65;;;18.13;;
72924;SDS011;61070;50.794;7.054;2022-12-18T04:58:14;44.40;;;16.70;;
72924;SDS011;61070;50.794;7.054;2022-12-18T05:00:40;41.97;;;16.95;;
72924;SDS011;61070;50.794;7.054;2022-12-18T05:03:05;51.42;;;18.42;;
72924;SDS011;61070;50.794;7.054;2022-12-18T05:05:30;49.42;;;17.48;;
72924;SDS011;61070;50.794;7.054;2022-12-18T05:07:56;44.63;;;18.83;;
72924;SDS011;61070;50.794;7.054;2022-12-18T05:10:21;49.22;;;17.77;;
72924;SDS011;61070;50.794;7.054;2022-12-18T05:12:46;51.35;;;17.67;;
72924;SDS011;61070;50.794;7.054;2022-12-18T05:15:27;48.50;;;16.92;;
72924;SDS011;61070;50.794;7.054;2022-12-18T05:17:56;42.92;;;16.27;;
72924;SDS011;61070;50.794;7.054;2022-12-18T05:20:23;65.07;;;19.80;;
72924;SDS011;61070;50.794;7.054;2022-12-18T05:22:48;49.40;;;18.75;;
72924;SDS011;61070;50.794;7.054;2022-12-18T05:25:14;52.05;;;17.45;;
72924;SDS011;61070;50.794;7.054;2022-12-18T05:27:40;43.50;;;17.40;;
72924;SDS011;61070;50.794;7.054;2022-12-18T05:30:05;50.88;;;18.85;;
72924;SDS011;61070;50.794;7.054;2022-12-18T05:32:31;48.38;;;17.88;;
72924;SDS011;61070;50.794;7.054;2022-12-18T05:34:56;49.42;;;18.67;;
72924;SDS011;61070;50.794;7.054;2022-12-18T05:37:22;50.45;;;18.33;;
72924;SDS011;61070;50.794;7.054;2022-12-18T05:39:47;49.53;;;19.17;;
72924;SDS011;61070;50.794;7.054;2022-12-18T05:42:12;47.40;;;19.38;;
72924;SDS011;61070;50.794;7.054;2022-12-18T05:44:38;51.22;;;19.33;;
72924;SDS011;61070;50.794;7.054;2022-12-18T05:47:03;56.78;;;20.88;;
72924;SDS011;61070;50.794;7.054;2022-12-18T05:49:29;44.22;;;18.67;;
72924;SDS011;61070;50.794;7.054;2022-12-18T05:51:54;46.78;;;17.60;;
72924;SDS011;61070;50.794;7.054;2022-12-18T05:54:19;58.05;;;19.50;;
72924;SDS011;61070;50.794;7.054;2022-12-18T05:56:45;53.13;;;19.48;;
72924;SDS011;61070;50.794;7.054;2022-12-18T05:59:10;54.75;;;19.67;;
72924;SDS011;61070;50.794;7.054;2022-12-18T06:01:35;50.67;;;18.63;;
72924;SDS011;61070;50.794;7.054;2022-12-18T06:04:00;47.65;;;18.02;;
72924;SDS011;61070;50.794;7.054;2022-12-18T06:06:26;50.13;;;19.92;;
72924;SDS011;61070;50.794;7.054;2022-12-18T06:08:52;40.75;;;16.75;;
72924;SDS011;61070;50.794;7.054;2022-12-18T06:11:19;50.80;;;19.15;;
72924;SDS011;61070;50.794;7.054;2022-12-18T06:13:49;45.95;;;18.50;;
72924;SDS011;61070;50.794;7.054;2022-12-18T06:16:16;46.90;;;18.10;;
72924;SDS011;61070;50.794;7.054;2022-12-18T06:18:41;45.60;;;19.33;;
72924;SDS011;61070;50.794;7.054;2022-12-18T06:21:06;51.67;;;19.05;;
72924;SDS011;61070;50.794;7.054;2022-12-18T06:23:31;49.47;;;17.92;;
72924;SDS011;61070;50.794;7.054;2022-12-18T06:25:57;42.55;;;18.35;;
72924;SDS011;61070;50.794;7.054;2022-12-18T06:28:22;46.15;;;18.83;;
72924;SDS011;61070;50.794;7.054;2022-12-18T06:30:48;45.50;;;18.48;;
72924;SDS011;61070;50.794;7.054;2022-12-18T06:33:14;45.95;;;18.17;;
72924;SDS011;61070;50.794;7.054;2022-12-18T06:35:40;52.10;;;19.67;;
72924;SDS011;61070;50.794;7.054;2022-12-18T06:38:05;49.28;;;18.52;;
72924;SDS011;61070;50.794;7.054;2022-12-18T06:40:31;48.08;;;19.10;;
72924;SDS011;61070;50.794;7.054;2022-12-18T06:42:56;47.90;;;19.10;;
72924;SDS011;61070;50.794;7.054;2022-12-18T06:45:22;49.00;;;18.70;;
72924;SDS011;61070;50.794;7.054;2022-12-18T06:47:47;47.15;;;17.83;;
72924;SDS011;61070;50.794;7.054;2022-12-18T06:50:12;47.80;;;19.73;;
72924;SDS011;61070;50.794;7.054;2022-12-18T06:52:38;52.05;;;18.17;;
72924;SDS011;61070;50.794;7.054;2022-12-18T06:55:05;47.97;;;18.27;;
72924;SDS011;61070;50.794;7.054;2022-12-18T06:57:34;49.78;;;17.90;;
72924;SDS011;61070;50.794;7.054;2022-12-18T06:59:59;53.75;;;21.27;;
72924;SDS011;61070;50.794;7.054;2022-12-18T07:02:24;47.92;;;19.60;;
72924;SDS011;61070;50.794;7.054;2022-12-18T07:04:50;57.00;;;18.45;;
72924;SDS011;61070;50.794;7.054;2022-12-18T07:07:15;56.40;;;19.38;;
72924;SDS011;61070;50.794;7.054;2022-12-18T07:09:40;46.42;;;18.90;;
72924;SDS011;61070;50.794;7.054;2022-12-18T07:12:05;48.90;;;17.90;;
72924;SDS011;61070;50.794;7.054;2022-12-18T07:14:32;47.53;;;18.52;;
72924;SDS011;61070;50.794;7.054;2022-12-18T07:16:57;49.03;;;18.42;;
72924;SDS011;61070;50.794;7.054;2022-12-18T07:19:23;52.92;;;18.27;;
72924;SDS011;61070;50.794;7.054;2022-12-18T07:21:49;54.33;;;20.10;;
72924;SDS011;61070;50.794;7.054;2022-12-18T07:24:15;40.17;;;18.70;;
72924;SDS011;61070;50.794;7.054;2022-12-18T07:26:40;42.35;;;17.40;;
72924;SDS011;61070;50.794;7.054;2022-12-18T07:29:05;47.63;;;18.65;;
72924;SDS011;61070;50.794;7.054;2022-12-18T07:31:31;45.85;;;19.20;;
72924;SDS011;61070;50.794;7.054;2022-12-18T07:33:56;49.53;;;17.98;;
72924;SDS011;61070;50.794;7.054;2022-12-18T07:36:23;54.47;;;20.15;;
72924;SDS011;61070;50.794;7.054;2022-12-18T07:38:48;47.38;;;18.20;;
72924;SDS011;61070;50.794;7.054;2022-12-18T07:41:14;45.40;;;19.25;;
72924;SDS011;61070;50.794;7.054;2022-12-18T07:43:40;43.47;;;17.83;;
72924;SDS011;61070;50.794;7.054;2022-12-18T07:46:06;48.30;;;19.52;;
72924;SDS011;61070;50.794;7.054;2022-12-18T07:48:33;40.75;;;18.10;;
72924;SDS011;61070;50.794;7.054;2022-12-18T07:50:59;53.30;;;18.15;;
72924;SDS011;61070;50.794;7.054;2022-12-18T07:53:25;42.05;;;18.27;;
72924;SDS011;61070;50.794;7.054;2022-12-18T07:55:54;44.78;;;19.45;;
72924;SDS011;61070;50.794;7.054;2022-12-18T07:58:21;50.10;;;17.23;;
72924;SDS011;61070;50.794;7.054;2022-12-18T08:00:46;47.30;;;17.00;;
72924;SDS011;61070;50.794;7.054;2022-12-18T08:03:12;49.75;;;18.67;;
72924;SDS011;61070;50.794;7.054;2022-12-18T08:05:38;45.08;;;19.02;;
72924;SDS011;61070;50.794;7.054;2022-12-18T08:08:03;47.47;;;18.95;;
72924;SDS011;61070;50.794;7.054;2022-12-18T08:10:29;45.47;;;18.08;;
72924;SDS011;61070;50.794;7.054;2022-12-18T08:12:54;51.10;;;18.40;;
72924;SDS011;61070;50.794;7.054;2022-12-18T08:15:19;45.13;;;17.02;;
72924;SDS011;61070;50.794;7.054;2022-12-18T08:17:45;46.33;;;19.77;;
72924;SDS011;61070;50.794;7.054;2022-12-18T08:20:10;38.33;;;16.98;;
72924;SDS011;61070;50.794;7.054;2022-12-18T08:22:36;48.25;;;19.80;;
72924;SDS011;61070;50.794;7.054;2022-12-18T08:25:02;39.92;;;16.90;;
72924;SDS011;61070;50.794;7.054;2022-12-18T08:27:28;43.60;;;17.20;;
72924;SDS011;61070;50.794;7.054;2022-12-18T08:29:53;49.10;;;18.40;;
72924;SDS011;61070;50.794;7.054;2022-12-18T08:32:19;41.55;;;18.45;;
72924;SDS011;61070;50.794;7.054;2022-12-18T08:34:44;53.80;;;19.55;;
72924;SDS011;61070;50.794;7.054;2022-12-18T08:37:09;48.20;;;19.55;;
72924;SDS011;61070;50.794;7.054;2022-12-18T08:39:35;41.70;;;17.88;;
72924;SDS011;61070;50.794;7.054;2022-12-18T08:42:00;47.80;;;19.50;;
72924;SDS011;61070;50.794;7.054;2022-12-18T08:44:43;50.60;;;19.70;;
72924;SDS011;61070;50.794;7.054;2022-12-18T08:47:09;52.45;;;19.58;;
72924;SDS011;61070;50.794;7.054;2022-12-18T08:49:34;50.95;;;20.05;;
72924;SDS011;61070;50.794;7.054;2022-12-18T08:51:59;47.72;;;19.67;;
72924;SDS011;61070;50.794;7.054;2022-12-18T08:54:25;49.67;;;20.77;;
72924;SDS011;61070;50.794;7.054;2022-12-18T08:56:51;48.17;;;20.02;;
72924;SDS011;61070;50.794;7.054;2022-12-18T08:59:17;53.10;;;22.98;;
72924;SDS011;61070;50.794;7.054;2022-12-18T09:01:43;51.70;;;20.70;;
72924;SDS011;61070;50.794;7.054;2022-12-18T09:04:11;58.50;;;21.00;;
72924;SDS011;61070;50.794;7.054;2022-12-18T09:06:37;45.40;;;16.57;;
72924;SDS011;61070;50.794;7.054;2022-12-18T09:09:03;54.35;;;19.85;;
72924;SDS011;61070;50.794;7.054;2022-12-18T09:11:30;44.92;;;18.33;;
72924;SDS011;61070;50.794;7.054;2022-12-18T09:13:56;51.78;;;21.70;;
72924;SDS011;61070;50.794;7.054;2022-12-18T09:16:23;50.22;;;21.38;;
72924;SDS011;61070;50.794;7.054;2022-12-18T09:18:50;53.28;;;20.92;;
72924;SDS011;61070;50.794;7.054;2022-12-18T09:21:19;52.67;;;21.48;;
72924;SDS011;61070;50.794;7.054;2022-12-18T09:23:49;56.45;;;23.13;;
72924;SDS011;61070;50.794;7.054;2022-12-18T09:28:41;47.65;;;19.85;;
72924;SDS011;61070;50.794;7.054;2022-12-18T09:31:07;57.78;;;20.90;;
72924;SDS011;61070;50.794;7.054;2022-12-18T09:33:34;54.20;;;20.98;;
72924;SDS011;61070;50.794;7.054;2022-12-18T09:36:03;47.13;;;20.03;;
72924;SDS011;61070;50.794;7.054;2022-12-18T09:38:30;53.05;;;20.15;;
72924;SDS011;61070;50.794;7.054;2022-12-18T09:40:57;51.83;;;21.13;;
72924;SDS011;61070;50.794;7.054;2022-12-18T09:43:30;50.13;;;19.25;;
72924;SDS011;61070;50.794;7.054;2022-12-18T09:46:03;46.33;;;19.27;;
72924;SDS011;61070;50.794;7.054;2022-12-18T09:48:34;46.78;;;19.17;;
72924;SDS011;61070;50.794;7.054;2022-12-18T09:51:08;38.03;;;17.80;;
72924;SDS011;61070;50.794;7.054;2022-12-18T09:53:38;41.65;;;17.42;;
72924;SDS011;61070;50.794;7.054;2022-12-18T09:56:10;37.08;;;15.65;;
72924;SDS011;61070;50.794;7.054;2022-12-18T09:58:41;42.20;;;15.93;;
72924;SDS011;61070;50.794;7.054;2022-12-18T10:01:17;45.58;;;17.13;;
72924;SDS011;61070;50.794;7.054;2022-12-18T10:03:45;39.38;;;16.55;;
72924;SDS011;61070;50.794;7.054;2022-12-18T10:06:15;33.72;;;14.98;;
72924;SDS011;61070;50.794;7.054;2022-12-18T10:11:32;33.45;;;13.23;;
72924;SDS011;61070;50.794;7.054;2022-12-18T10:14:20;44.72;;;16.58;;
72924;SDS011;61070;50.794;7.054;2022-12-18T10:22:08;41.72;;;16.27;;
72924;SDS011;61070;50.794;7.054;2022-12-18T10:27:21;41.55;;;17.30;;
72924;SDS011;61070;50.794;7.054;2022-12-18T10:29:49;37.22;;;16.27;;
72924;SDS011;61070;50.794;7.054;2022-12-18T10:32:16;36.38;;;15.52;;
72924;SDS011;61070;50.794;7.054;2022-12-18T10:34:45;38.08;;;16.58;;
72924;SDS011;61070;50.794;7.054;2022-12-18T10:37:16;47.55;;;17.38;;
72924;SDS011;61070;50.794;7.054;2022-12-18T10:39:44;39.60;;;17.85;;
72924;SDS011;61070;50.794;7.054;2022-12-18T10:42:16;45.08;;;17.65;;
72924;SDS011;61070;50.794;7.054;2022-12-18T10:44:43;40.83;;;18.50;;
72924;SDS011;61070;50.794;7.054;2022-12-18T10:47:11;37.85;;;16.38;;
72924;SDS011;61070;50.794;7.054;2022-12-18T10:49:42;45.60;;;17.90;;
72924;SDS011;61070;50.794;7.054;2022-12-18T10:52:15;38.30;;;17.08;;
72924;SDS011;61070;50.794;7.054;2022-12-18T10:57:19;45.42;;;16.33;;
72924;SDS011;61070;50.794;7.054;2022-12-18T10:59:56;34.35;;;16.08;;
72924;SDS011;61070;50.794;7.054;2022-12-18T11:02:25;30.25;;;14.57;;
72924;SDS011;61070;50.794;7.054;2022-12-18T11:04:52;30.88;;;13.73;;
72924;SDS011;61070;50.794;7.054;2022-12-18T11:07:18;38.47;;;17.63;;
72924;SDS011;61070;50.794;7.054;2022-12-18T11:09:43;37.15;;;17.65;;
72924;SDS011;61070;50.794;7.054;2022-12-18T11:12:15;35.75;;;16.52;;
72924;SDS011;61070;50.794;7.054;2022-12-18T11:14:45;38.00;;;15.73;;
72924;SDS011;61070;50.794;7.054;2022-12-18T11:17:20;38.83;;;15.75;;
72924;SDS011;61070;50.794;7.054;2022-12-18T11:19:46;36.08;;;15.48;;
72924;SDS011;61070;50.794;7.054;2022-12-18T11:22:23;39.65;;;18.45;;
72924;SDS011;61070;50.794;7.054;2022-12-18T11:24:53;39.83;;;18.45;;
72924;SDS011;61070;50.794;7.054;2022-12-18T11:27:23;40.00;;;18.13;;
72924;SDS011;61070;50.794;7.054;2022-12-18T11:29:49;43.20;;;18.02;;
72924;SDS011;61070;50.794;7.054;2022-12-18T11:35:03;41.88;;;17.52;;
72924;SDS011;61070;50.794;7.054;2022-12-18T11:37:40;39.65;;;18.30;;
72924;SDS011;61070;50.794;7.054;2022-12-18T11:40:18;46.95;;;17.63;;
72924;SDS011;61070;50.794;7.054;2022-12-18T11:42:52;43.88;;;19.35;;
72924;SDS011;61070;50.794;7.054;2022-12-18T11:45:41;41.83;;;18.35;;
72924;SDS011;61070;50.794;7.054;2022-12-18T11:48:14;41.22;;;18.73;;
72924;SDS011;61070;50.794;7.054;2022-12-18T11:53:18;42.85;;;18.48;;
72924;SDS011;61070;50.794;7.054;2022-12-18T12:01:34;48.88;;;20.48;;
72924;SDS011;61070;50.794;7.054;2022-12-18T12:12:57;31.55;;;14.93;;
72924;SDS011;61070;50.794;7.054;2022-12-18T12:18:51;38.47;;;15.23;;
72924;SDS011;61070;50.794;7.054;2022-12-18T12:21:36;52.13;;;21.77;;
72924;SDS011;61070;50.794;7.054;2022-12-18T12:39:35;47.08;;;19.77;;
72924;SDS011;61070;50.794;7.054;2022-12-18T12:42:05;35.40;;;15.30;;
72924;SDS011;61070;50.794;7.054;2022-12-18T12:44:59;42.30;;;18.95;;
72924;SDS011;61070;50.794;7.054;2022-12-18T12:47:30;45.38;;;20.88;;
72924;SDS011;61070;50.794;7.054;2022-12-18T12:50:02;45.88;;;19.63;;
72924;SDS011;61070;50.794;7.054;2022-12-18T12:52:34;33.25;;;13.00;;
72924;SDS011;61070;50.794;7.054;2022-12-18T12:55:04;39.90;;;16.90;;
72924;SDS011;61070;50.794;7.054;2022-12-18T12:57:39;44.90;;;19.35;;
72924;SDS011;61070;50.794;7.054;2022-12-18T13:00:15;44.53;;;17.80;;
72924;SDS011;61070;50.794;7.054;2022-12-18T13:05:50;42.38;;;17.55;;
72924;SDS011;61070;50.794;7.054;2022-12-18T13:10:50;44.22;;;18.77;;
72924;SDS011;61070;50.794;7.054;2022-12-18T13:13:48;42.40;;;17.75;;
72924;SDS011;61070;50.794;7.054;2022-12-18T13:16:19;37.63;;;16.95;;
72924;SDS011;61070;50.794;7.054;2022-12-18T13:18:50;48.97;;;20.75;;
72924;SDS011;61070;50.794;7.054;2022-12-18T13:23:52;38.35;;;18.55;;
72924;SDS011;61070;50.794;7.054;2022-12-18T13:31:12;58.35;;;21.35;;
72924;SDS011;61070;50.794;7.054;2022-12-18T13:38:40;41.75;;;18.83;;
72924;SDS011;61070;50.794;7.054;2022-12-18T13:43:52;46.78;;;19.48;;
72924;SDS011;61070;50.794;7.054;2022-12-18T13:51:53;42.72;;;18.60;;
72924;SDS011;61070;50.794;7.054;2022-12-18T13:54:23;48.40;;;20.83;;
72924;SDS011;61070;50.794;7.054;2022-12-18T13:56:55;55.17;;;22.08;;
72924;SDS011;61070;50.794;7.054;2022-12-18T13:59:33;48.97;;;22.52;;
72924;SDS011;61070;50.794;7.054;2022-12-18T14:02:01;41.67;;;18.43;;
72924;SDS011;61070;50.794;7.054;2022-12-18T14:04:37;51.63;;;20.92;;
72924;SDS011;61070;50.794;7.054;2022-12-18T14:07:04;70.18;;;29.75;;
72924;SDS011;61070;50.794;7.054;2022-12-18T14:09:36;48.75;;;20.83;;
72924;SDS011;61070;50.794;7.054;2022-12-18T14:12:04;51.28;;;21.10;;
72924;SDS011;61070;50.794;7.054;2022-12-18T14:14:53;51.78;;;22.38;;
72924;SDS011;61070;50.794;7.054;2022-12-18T14:17:18;53.67;;;23.65;;
72924;SDS011;61070;50.794;7.054;2022-12-18T14:19:48;49.28;;;22.50;;
72924;SDS011;61070;50.794;7.054;2022-12-18T14:22:19;51.10;;;21.23;;
72924;SDS011;61070;50.794;7.054;2022-12-18T14:24:47;47.17;;;22.23;;
72924;SDS011;61070;50.794;7.054;2022-12-18T14:27:19;55.97;;;24.25;;
72924;SDS011;61070;50.794;7.054;2022-12-18T14:29:47;43.65;;;19.88;;
72924;SDS011;61070;50.794;7.054;2022-12-18T14:32:14;59.65;;;24.67;;
72924;SDS011;61070;50.794;7.054;2022-12-18T14:34:42;58.85;;;23.08;;
72924;SDS011;61070;50.794;7.054;2022-12-18T14:37:12;46.90;;;20.77;;
72924;SDS011;61070;50.794;7.054;2022-12-18T14:39:39;51.40;;;21.23;;
72924;SDS011;61070;50.794;7.054;2022-12-18T14:42:04;50.58;;;23.25;;
72924;SDS011;61070;50.794;7.054;2022-12-18T14:44:30;52.72;;;22.17;;
72924;SDS011;61070;50.794;7.054;2022-12-18T14:46:55;50.90;;;22.10;;
72924;SDS011;61070;50.794;7.054;2022-12-18T14:49:33;55.97;;;23.50;;
72924;SDS011;61070;50.794;7.054;2022-12-18T14:52:03;53.88;;;21.27;;
72924;SDS011;61070;50.794;7.054;2022-12-18T14:54:31;69.72;;;26.27;;
72924;SDS011;61070;50.794;7.054;2022-12-18T14:59:41;75.55;;;30.48;;
72924;SDS011;61070;50.794;7.054;2022-12-18T15:05:02;54.17;;;24.33;;
72924;SDS011;61070;50.794;7.054;2022-12-18T15:07:41;54.05;;;21.40;;
72924;SDS011;61070;50.794;7.054;2022-12-18T15:12:38;47.75;;;20.02;;
72924;SDS011;61070;50.794;7.054;2022-12-18T15:18:20;50.63;;;22.02;;
72924;SDS011;61070;50.794;7.054;2022-12-18T15:23:24;49.30;;;21.58;;
72924;SDS011;61070;50.794;7.054;2022-12-18T15:25:56;56.30;;;21.70;;
72924;SDS011;61070;50.794;7.054;2022-12-18T15:28:25;47.55;;;20.42;;
72924;SDS011;61070;50.794;7.054;2022-12-18T15:31:20;57.30;;;23.55;;
72924;SDS011;61070;50.794;7.054;2022-12-18T15:36:23;57.28;;;23.95;;
72924;SDS011;61070;50.794;7.054;2022-12-18T15:38:49;56.72;;;22.88;;
72924;SDS011;61070;50.794;7.054;2022-12-18T15:41:16;60.33;;;24.38;;
72924;SDS011;61070;50.794;7.054;2022-12-18T15:43:46;56.67;;;24.55;;
72924;SDS011;61070;50.794;7.054;2022-12-18T15:46:14;48.55;;;20.65;;
72924;SDS011;61070;50.794;7.054;2022-12-18T15:48:41;58.78;;;26.15;;
72924;SDS011;61070;50.794;7.054;2022-12-18T15:51:13;53.30;;;22.90;;
72924;SDS011;61070;50.794;7.054;2022-12-18T15:53:39;58.00;;;23.30;;
72924;SDS011;61070;50.794;7.054;2022-12-18T15:56:04;52.72;;;23.10;;
72924;SDS011;61070;50.794;7.054;2022-12-18T15:58:52;59.45;;;23.00;;
72924;SDS011;61070;50.794;7.054;2022-12-18T16:01:18;51.42;;;22.73;;
72924;SDS011;61070;50.794;7.054;2022-12-18T16:03:47;56.63;;;23.27;;
72924;SDS011;61070;50.794;7.054;2022-12-18T16:06:12;50.80;;;22.48;;
72924;SDS011;61070;50.794;7.054;2022-12-18T16:08:38;44.25;;;20.73;;
72924;SDS011;61070;50.794;7.054;2022-12-18T16:11:03;51.92;;;22.73;;
72924;SDS011;61070;50.794;7.054;2022-12-18T16:13:28;63.22;;;23.55;;
72924;SDS011;61070;50.794;7.054;2022-12-18T16:15:54;52.30;;;22.83;;
72924;SDS011;61070;50.794;7.054;2022-12-18T16:18:19;62.50;;;24.48;;
72924;SDS011;61070;50.794;7.054;2022-12-18T16:20:44;53.75;;;23.48;;
72924;SDS011;61070;50.794;7.054;2022-12-18T16:23:10;53.22;;;23.00;;